createdAt,value
2019-04-16T00:01:57.775Z,92.80
2019-04-16T00:07:23.026Z,92.90
2019-04-16T00:12:44.812Z,93.50
2019-04-16T00:17:48.170Z,93.90
2019-04-16T00:23:06.410Z,94.90
2019-04-16T00:28:09.139Z,95.80
2019-04-16T00:33:12.927Z,96.60
2019-04-16T00:38:15.599Z,97.00
2019-04-16T00:43:19.171Z,97.20
2019-04-16T00:48:22.119Z,97.80
2019-04-16T00:53:25.026Z,98.10
2019-04-16T00:58:27.679Z,98.50
2019-04-16T01:03:30.544Z,98.80
2019-04-16T01:08:34.387Z,98.90
2019-04-16T01:13:37.047Z,98.90
2019-04-16T01:18:39.625Z,98.50
2019-04-16T01:23:42.331Z,98.80
2019-04-16T01:28:50.580Z,98.70
2019-04-16T01:34:04.240Z,99.10
2019-04-16T01:39:17.677Z,99.20
2019-04-16T01:44:14.612Z,99.10
2019-04-16T01:49:17.157Z,99.60
2019-04-16T01:54:22.852Z,99.90
2019-04-16T01:59:28.982Z,99.90
2019-04-16T02:04:32.092Z,99.90
2019-04-16T02:09:35.752Z,99.90
2019-04-16T02:14:38.585Z,99.90
2019-04-16T02:19:41.277Z,99.90
2019-04-16T02:24:44.023Z,99.90
2019-04-16T02:29:46.612Z,99.90
2019-04-16T02:34:49.256Z,99.90
2019-04-16T02:39:52.002Z,99.90
2019-04-16T02:44:54.629Z,99.90
2019-04-16T02:49:58.081Z,99.90
2019-04-16T02:55:16.902Z,99.90
2019-04-16T03:00:31.970Z,99.90
2019-04-16T03:05:37.139Z,99.90
2019-04-16T03:10:41.825Z,99.90
2019-04-16T03:16:02.881Z,99.90
2019-04-16T03:21:06.731Z,99.90
2019-04-16T03:26:09.402Z,99.90
2019-04-16T03:31:20.273Z,99.90
2019-04-16T03:36:16.604Z,99.90
2019-04-16T03:41:20.076Z,99.90
2019-04-16T03:46:22.749Z,99.90
2019-04-16T03:51:25.393Z,99.90
2019-04-16T03:56:30.597Z,99.90
2019-04-16T04:01:32.677Z,99.90
2019-04-16T04:06:36.495Z,99.90
2019-04-16T04:11:52.125Z,99.90
2019-04-16T04:16:54.769Z,99.90
2019-04-16T04:21:57.331Z,99.90
2019-04-16T04:27:00.027Z,99.90
2019-04-16T04:32:03.375Z,99.90
2019-04-16T04:37:06.884Z,99.90
2019-04-16T04:42:09.526Z,99.90
2019-04-16T04:47:12.259Z,99.90
2019-04-16T04:52:15.338Z,99.90
2019-04-16T04:57:19.367Z,99.90
2019-04-16T05:02:23.516Z,99.90
2019-04-16T05:07:29.062Z,99.90
2019-04-16T05:12:30.963Z,99.90
2019-04-16T05:17:35.435Z,99.90
2019-04-16T05:22:38.201Z,99.90
2019-04-16T05:27:41.571Z,99.90
2019-04-16T05:32:45.272Z,99.90
2019-04-16T05:37:48.537Z,99.90
2019-04-16T05:42:52.788Z,99.90
2019-04-16T05:47:55.421Z,99.90
2019-04-16T05:52:58.161Z,99.90
2019-04-16T05:58:00.811Z,99.90
2019-04-16T06:03:03.443Z,99.90
2019-04-16T06:08:12.358Z,99.90
2019-04-16T06:13:41.331Z,99.90
2019-04-16T06:19:13.733Z,99.90
2019-04-16T06:24:32.337Z,99.90
2019-04-16T06:30:14.195Z,99.90
2019-04-16T06:35:43.289Z,99.90
2019-04-16T06:41:04.234Z,99.90
2019-04-16T06:46:25.374Z,99.90
2019-04-16T06:51:37.307Z,99.90
2019-04-16T06:56:50.277Z,99.90
2019-04-16T07:02:26.884Z,99.90
2019-04-16T07:07:47.910Z,99.90
2019-04-16T07:12:50.654Z,99.90
2019-04-16T07:17:53.640Z,99.90
2019-04-16T07:22:56.353Z,99.90
2019-04-16T07:28:10.298Z,99.40
2019-04-16T07:33:34.654Z,98.40
2019-04-16T07:38:45.763Z,98.00
2019-04-16T07:44:10.500Z,97.20
2019-04-16T07:49:30.907Z,97.10
2019-04-16T07:54:45.314Z,96.10
2019-04-16T07:59:48.073Z,95.50
2019-04-16T08:04:50.831Z,94.00
2019-04-16T08:09:53.638Z,93.60
2019-04-16T08:14:56.395Z,93.10
2019-04-16T08:19:59.041Z,93.40
2019-04-16T08:25:03.803Z,93.30
2019-04-16T08:30:08.846Z,93.20
2019-04-16T08:35:11.452Z,92.80
2019-04-16T08:40:14.182Z,92.30
2019-04-16T08:45:16.908Z,91.50
2019-04-16T08:50:19.511Z,91.60
2019-04-16T08:55:23.568Z,91.30
2019-04-16T09:00:26.888Z,90.00
2019-04-16T09:05:29.679Z,89.20
2019-04-16T09:10:32.560Z,89.10
2019-04-16T09:15:35.607Z,88.90
2019-04-16T09:20:40.176Z,88.70
2019-04-16T09:26:18.692Z,89.50
2019-04-16T09:31:35.320Z,88.90
2019-04-16T09:36:57.563Z,89.20
2019-04-16T09:42:00.349Z,86.60
2019-04-16T09:47:05.141Z,86.20
2019-04-16T09:52:08.109Z,83.80
2019-04-16T09:57:11.917Z,84.50
2019-04-16T10:02:18.123Z,84.40
2019-04-16T10:07:24.680Z,83.60
2019-04-16T10:12:27.454Z,82.20
2019-04-16T10:17:30.217Z,82.50
2019-04-16T10:22:33.006Z,83.70
2019-04-16T10:27:38.532Z,83.40
2019-04-16T10:32:41.326Z,82.80
2019-04-16T10:37:44.219Z,80.00
2019-04-16T10:43:05.204Z,80.10
2019-04-16T10:48:36.592Z,78.20
2019-04-16T10:54:07.826Z,82.60
2019-04-16T10:59:27.965Z,86.60
2019-04-16T11:04:56.130Z,98.30
2019-04-16T11:09:58.920Z,99.90
2019-04-16T11:15:01.759Z,99.90
2019-04-16T11:20:05.050Z,99.90
2019-04-16T11:25:07.874Z,99.90
2019-04-16T11:30:19.284Z,98.90
2019-04-16T11:35:23.178Z,97.10
2019-04-16T11:40:25.953Z,93.90
2019-04-16T11:45:31.955Z,85.10
2019-04-16T11:50:36.124Z,78.60
2019-04-16T11:55:39.083Z,73.00
2019-04-16T12:00:52.147Z,64.40
2019-04-16T12:06:27.104Z,57.20
2019-04-16T12:11:24.827Z,56.50
2019-04-16T12:16:35.280Z,55.70
2019-04-16T12:22:03.598Z,55.30
2019-04-16T12:27:31.609Z,52.70
2019-04-16T12:32:53.741Z,51.00
2019-04-16T12:38:18.365Z,51.00
2019-04-16T12:43:44.995Z,51.50
2019-04-16T12:49:12.957Z,53.00
2019-04-16T12:54:44.249Z,53.70
2019-04-16T13:00:05.299Z,54.80
2019-04-16T13:05:29.826Z,57.60
2019-04-16T13:10:58.243Z,60.60
2019-04-16T13:16:08.834Z,58.40
2019-04-16T13:21:18.065Z,57.60
2019-04-16T13:26:55.391Z,57.00
2019-04-16T13:31:58.037Z,57.20
2019-04-16T13:37:01.070Z,57.00
2019-04-16T13:42:04.005Z,55.60
2019-04-16T13:47:06.964Z,54.90
2019-04-16T13:52:09.723Z,54.00
2019-04-16T13:57:15.454Z,53.00
2019-04-16T14:02:37.256Z,53.20
2019-04-16T14:07:39.992Z,53.70
2019-04-16T14:12:42.856Z,53.70
2019-04-16T14:17:52.887Z,52.50
2019-04-16T14:22:53.266Z,52.50
2019-04-16T14:27:55.588Z,52.80
2019-04-16T14:32:58.606Z,54.40
2019-04-16T14:38:01.299Z,55.40
2019-04-16T14:43:04.443Z,55.70
2019-04-16T14:48:08.658Z,56.00
2019-04-16T14:53:15.459Z,55.80
2019-04-16T14:58:49.981Z,56.10
2019-04-16T15:04:10.748Z,54.70
2019-04-16T15:09:25.508Z,53.00
2019-04-16T15:15:40.496Z,52.10
2019-04-16T15:21:10.172Z,52.60
2019-04-16T15:26:28.536Z,61.20
2019-04-16T15:31:50.399Z,56.50
2019-04-16T15:37:09.293Z,55.10
2019-04-16T15:42:38.510Z,54.80
2019-04-16T15:48:04.402Z,51.20
2019-04-16T15:53:24.363Z,46.20
2019-04-16T15:58:49.344Z,42.20
2019-04-16T16:04:13.581Z,38.90
2019-04-16T16:09:23.427Z,41.40
2019-04-16T16:14:26.115Z,43.00
2019-04-16T16:19:28.769Z,42.30
2019-04-16T16:24:31.513Z,41.00
2019-04-16T16:29:34.135Z,37.90
2019-04-16T16:34:37.243Z,37.20
2019-04-16T16:39:40.048Z,37.40
2019-04-16T16:44:42.727Z,36.60
2019-04-16T16:49:45.536Z,35.90
2019-04-16T16:54:48.888Z,35.10
2019-04-16T17:00:09.582Z,35.80
2019-04-16T17:05:17.447Z,35.40
2019-04-16T17:10:21.252Z,36.50
2019-04-16T17:15:24.109Z,36.80
2019-04-16T17:20:26.979Z,36.10
2019-04-16T17:25:36.505Z,36.90
2019-04-16T17:30:35.869Z,38.20
2019-04-16T17:35:38.856Z,39.30
2019-04-16T17:40:47.658Z,42.00
2019-04-16T17:46:24.948Z,42.20
2019-04-16T17:51:49.401Z,42.50
2019-04-16T17:57:30.252Z,43.00
2019-04-16T18:02:48.860Z,44.40
2019-04-16T18:08:14.127Z,47.30
2019-04-16T18:13:32.919Z,49.50
2019-04-16T18:18:42.321Z,51.50
2019-04-16T18:23:53.828Z,52.90
2019-04-16T18:29:21.412Z,53.50
2019-04-16T18:34:44.489Z,55.40
2019-04-16T18:39:56.397Z,55.70
2019-04-16T18:45:27.921Z,57.60
2019-04-16T18:50:30.881Z,58.20
2019-04-16T18:55:35.105Z,59.40
2019-04-16T19:00:49.337Z,61.20
2019-04-16T19:05:52.451Z,61.10
2019-04-16T19:10:55.397Z,63.20
2019-04-16T19:15:58.473Z,63.80
2019-04-16T19:21:01.436Z,63.60
2019-04-16T19:26:05.578Z,64.70
2019-04-16T19:31:08.329Z,66.00
2019-04-16T19:36:11.265Z,66.00
2019-04-16T19:41:14.216Z,66.20
2019-04-16T19:46:16.982Z,66.50
2019-04-16T19:51:20.775Z,67.30
2019-04-16T19:56:24.606Z,68.00
2019-04-16T20:01:27.429Z,68.40
2019-04-16T20:06:30.300Z,69.50
2019-04-16T20:11:33.044Z,70.60
2019-04-16T20:16:35.906Z,72.20
2019-04-16T20:21:38.579Z,73.30
2019-04-16T20:26:41.300Z,74.80
2019-04-16T20:31:43.938Z,75.70
2019-04-16T20:36:46.795Z,77.40
2019-04-16T20:41:52.751Z,78.10
2019-04-16T20:46:54.078Z,78.50
2019-04-16T20:52:00.461Z,80.20
2019-04-16T20:57:01.298Z,81.10
2019-04-16T21:02:04.243Z,83.40
2019-04-16T21:07:07.123Z,84.40
2019-04-16T21:12:13.089Z,87.30
2019-04-16T21:17:15.445Z,87.50
2019-04-16T21:22:18.119Z,88.50
2019-04-16T21:27:20.874Z,89.50
2019-04-16T21:32:38.028Z,90.20
2019-04-16T21:38:15.352Z,90.60
2019-04-16T21:43:18.225Z,90.10
2019-04-16T21:48:23.804Z,90.40
2019-04-16T21:53:27.836Z,91.50
2019-04-16T21:58:30.998Z,91.10
2019-04-16T22:03:34.142Z,92.30
2019-04-16T22:08:37.853Z,92.60
2019-04-16T22:13:40.569Z,93.00
2019-04-16T22:18:43.206Z,93.50
2019-04-16T22:23:50.118Z,94.60
2019-04-16T22:28:53.226Z,94.90
2019-04-16T22:33:56.211Z,95.20
2019-04-16T22:39:05.362Z,95.80
2019-04-16T22:44:47.804Z,95.90
2019-04-16T22:49:51.631Z,95.50
2019-04-16T22:54:55.039Z,96.50
2019-04-16T22:59:57.745Z,96.60
2019-04-16T23:05:00.821Z,96.70
2019-04-16T23:10:04.859Z,97.60
2019-04-16T23:15:09.555Z,97.50
2019-04-16T23:20:12.398Z,98.30
2019-04-16T23:25:15.073Z,98.80
2019-04-16T23:30:18.516Z,99.10
2019-04-16T23:35:24.915Z,98.90
2019-04-16T23:40:26.332Z,99.30
2019-04-16T23:45:38.264Z,99.60
2019-04-16T23:51:14.057Z,99.90
2019-04-16T23:56:29.011Z,99.90
